Time;durP1;ratioP1;P1;durP2;ratioP2;P2;SDS_P1;SDS_P2;PMS_P1;PMS_P2;Temp;Humidity;BMP_temperature;BMP_pressure;BME280_temperature;BME280_humidity;BME280_pressure;Samples;Min_cycle;Max_cycle;Signal;HPM_P1;HPM_P2
2021/03/02 00:00:21;;;;;;;2.33;1.00;;;21.90;46.50;;;;;;5061841;28;20032;-79
2021/03/02 00:02:47;;;;;;;1.35;0.68;;;21.90;46.50;;;;;;5054418;28;20038;-80
2021/03/02 00:05:15;;;;;;;0.90;0.60;;;21.90;46.50;;;;;;5060063;28;20419;-80
2021/03/02 00:07:41;;;;;;;1.00;0.70;;;21.90;46.40;;;;;;5062191;28;20514;-79
2021/03/02 00:10:12;;;;;;;2.10;0.60;;;21.90;46.40;;;;;;5059287;28;20032;-80
2021/03/02 00:12:40;;;;;;;1.98;0.93;;;21.80;46.30;;;;;;5062370;28;20519;-80
2021/03/02 00:15:07;;;;;;;0.82;0.60;;;21.90;46.40;;;;;;5047311;28;20093;-80
2021/03/02 00:17:48;;;;;;;1.05;0.65;;;21.80;46.40;;;;;;5040792;28;20029;-80
2021/03/02 00:20:20;;;;;;;1.33;0.77;;;21.80;46.40;;;;;;5061142;28;20033;-80
2021/03/02 00:22:52;;;;;;;1.20;0.90;;;21.70;46.30;;;;;;5043059;28;20121;-80
2021/03/02 00:25:17;;;;;;;0.98;0.70;;;21.80;46.40;;;;;;5061624;28;20028;-80
2021/03/02 00:27:44;;;;;;;1.02;0.50;;;21.70;46.30;;;;;;5060316;28;20032;-80
2021/03/02 00:30:10;;;;;;;1.33;0.60;;;21.80;46.30;;;;;;5059021;28;20032;-80
2021/03/02 00:32:37;;;;;;;1.42;0.73;;;21.70;46.30;;;;;;5060541;28;20090;-80
2021/03/02 00:35:05;;;;;;;1.52;0.60;;;21.70;46.30;;;;;;5055770;28;20489;-80
2021/03/02 00:37:31;;;;;;;1.25;0.47;;;21.70;46.40;;;;;;5060339;28;20606;-79
2021/03/02 00:39:56;;;;;;;1.08;0.63;;;21.70;46.30;;;;;;5057654;28;20064;-80
2021/03/02 00:42:22;;;;;;;1.55;0.88;;;21.70;46.30;;;;;;5056142;28;20473;-80
2021/03/02 00:44:47;;;;;;;1.17;0.68;;;21.60;46.30;;;;;;5055264;28;20395;-80
2021/03/02 00:47:13;;;;;;;1.73;0.60;;;21.70;46.30;;;;;;5057932;28;20029;-81
2021/03/02 00:49:39;;;;;;;1.20;0.60;;;21.70;46.30;;;;;;5057144;28;20017;-80
2021/03/02 00:52:05;;;;;;;1.10;0.88;;;21.60;46.30;;;;;;5059713;28;20029;-80
2021/03/02 00:54:31;;;;;;;1.13;0.73;;;21.60;46.20;;;;;;5057191;28;20029;-80
2021/03/02 00:56:56;;;;;;;1.15;0.50;;;21.60;46.40;;;;;;5062284;28;20035;-80
2021/03/02 00:59:22;;;;;;;1.60;0.60;;;21.60;46.30;;;;;;5056224;28;20097;-79
2021/03/02 01:01:47;;;;;;;2.58;0.82;;;21.60;46.30;;;;;;5060152;28;20028;-80
2021/03/02 01:04:13;;;;;;;1.25;0.77;;;21.50;46.30;;;;;;5055935;28;20079;-79
2021/03/02 01:06:39;;;;;;;1.17;0.68;;;21.60;46.30;;;;;;5062282;28;20098;-79
2021/03/02 01:09:08;;;;;;;1.05;0.40;;;21.50;46.20;;;;;;5043375;28;20032;-79
2021/03/02 01:11:34;;;;;;;1.42;0.70;;;21.50;46.20;;;;;;5057847;28;20675;-79
2021/03/02 01:14:01;;;;;;;1.15;0.73;;;21.50;46.30;;;;;;5060623;28;20063;-79
2021/03/02 01:16:27;;;;;;;1.38;0.80;;;21.50;46.30;;;;;;5059544;28;20037;-79
2021/03/02 01:18:52;;;;;;;1.83;0.70;;;21.50;45.50;;;;;;5057383;28;20054;-80
2021/03/02 01:21:18;;;;;;;1.15;0.68;;;21.50;45.30;;;;;;5055928;28;20033;-79
2021/03/02 01:23:43;;;;;;;1.42;0.80;;;21.50;44.90;;;;;;5056270;28;20489;-80
2021/03/02 01:26:09;;;;;;;1.23;0.77;;;21.40;43.80;;;;;;5057308;28;20059;-80
2021/03/02 01:28:35;;;;;;;0.82;0.50;;;21.40;43.20;;;;;;5042508;28;20037;-79
2021/03/02 01:31:00;;;;;;;1.05;0.60;;;21.40;42.40;;;;;;5055695;28;20038;-80
2021/03/02 01:33:26;;;;;;;1.00;0.50;;;21.40;42.20;;;;;;5054375;28;20404;-79
2021/03/02 01:35:52;;;;;;;3.15;0.90;;;21.40;41.90;;;;;;5059326;28;20021;-80
2021/03/02 01:38:17;;;;;;;3.08;0.85;;;21.40;41.40;;;;;;5054995;28;20037;-79
2021/03/02 01:40:43;;;;;;;1.10;0.60;;;21.40;40.90;;;;;;5056837;28;20037;-79
2021/03/02 01:43:09;;;;;;;1.65;0.52;;;21.40;40.50;;;;;;5056643;28;20032;-79
2021/03/02 01:45:37;;;;;;;1.33;0.50;;;21.40;40.00;;;;;;5044853;28;20044;-79
2021/03/02 01:48:03;;;;;;;2.00;0.75;;;21.30;39.70;;;;;;5057123;28;20017;-80
2021/03/02 01:50:29;;;;;;;1.00;0.63;;;21.30;39.50;;;;;;5059102;28;20059;-80
2021/03/02 01:52:55;;;;;;;1.30;0.68;;;21.30;39.40;;;;;;5057282;28;20056;-80
2021/03/02 01:55:20;;;;;;;1.00;0.68;;;21.20;39.30;;;;;;5055093;28;20036;-80
2021/03/02 01:57:46;;;;;;;0.80;0.32;;;21.30;39.30;;;;;;5055492;28;20120;-80
2021/03/02 02:00:22;;;;;;;1.02;0.52;;;21.30;39.30;;;;;;5036950;28;20545;-80
2021/03/02 02:02:50;;;;;;;1.40;0.65;;;21.20;39.20;;;;;;5058352;28;20318;-80
2021/03/02 02:05:18;;;;;;;1.73;0.52;;;21.20;39.30;;;;;;5056383;28;20028;-80
2021/03/02 02:07:52;;;;;;;1.20;0.60;;;21.20;39.20;;;;;;5059381;28;20451;-80
2021/03/02 02:10:29;;;;;;;1.20;0.80;;;21.20;39.20;;;;;;5054829;28;20057;-79
2021/03/02 02:13:02;;;;;;;1.08;0.82;;;21.20;39.20;;;;;;5059737;28;20025;-79
2021/03/02 02:15:32;;;;;;;0.90;0.50;;;21.10;39.10;;;;;;5058125;28;20036;-80
2021/03/02 02:18:16;;;;;;;0.82;0.40;;;21.10;39.10;;;;;;5056960;28;20036;-80
2021/03/02 02:20:44;;;;;;;1.30;0.52;;;21.10;39.10;;;;;;5057361;28;20030;-80
2021/03/02 02:23:37;;;;;;;0.90;0.70;;;21.10;39.10;;;;;;5059576;28;20035;-80
2021/03/02 02:26:26;;;;;;;1.73;0.45;;;21.10;39.20;;;;;;5059920;28;20028;-80
2021/03/02 02:28:54;;;;;;;1.13;0.40;;;21.10;39.10;;;;;;5055755;28;20029;-80
2021/03/02 02:31:22;;;;;;;0.80;0.50;;;21.10;39.20;;;;;;5056511;28;20114;-80
2021/03/02 02:33:50;;;;;;;1.83;0.50;;;21.10;39.10;;;;;;5059122;28;20116;-80
2021/03/02 02:36:17;;;;;;;1.70;0.55;;;21.10;39.10;;;;;;5054376;28;20032;-80
2021/03/02 02:38:47;;;;;;;0.98;0.50;;;21.10;39.10;;;;;;5059097;28;20033;-80
2021/03/02 02:41:14;;;;;;;1.70;0.95;;;21.00;38.90;;;;;;5059558;28;20090;-80
2021/03/02 02:43:41;;;;;;;0.75;0.50;;;21.00;39.00;;;;;;5057482;28;20405;-80
2021/03/02 02:46:07;;;;;;;0.75;0.55;;;21.10;39.00;;;;;;5055844;28;20564;-80
2021/03/02 02:48:33;;;;;;;1.42;0.45;;;21.00;39.00;;;;;;5058956;28;20400;-81
2021/03/02 02:50:59;;;;;;;0.73;0.40;;;21.10;39.10;;;;;;5043614;28;20028;-80
2021/03/02 02:53:25;;;;;;;1.00;0.68;;;21.00;39.00;;;;;;5061619;28;20196;-80
2021/03/02 02:55:59;;;;;;;2.10;0.80;;;21.00;39.10;;;;;;5059476;28;20029;-80
2021/03/02 02:58:52;;;;;;;0.70;0.40;;;21.00;39.00;;;;;;5059586;28;20069;-79
2021/03/02 03:01:20;;;;;;;0.98;0.30;;;21.00;39.00;;;;;;5028480;28;20051;-79
2021/03/02 03:03:48;;;;;;;1.02;0.50;;;21.00;39.00;;;;;;5063746;28;20074;-80
2021/03/02 03:06:17;;;;;;;0.90;0.50;;;21.00;39.00;;;;;;5061454;28;20037;-80
2021/03/02 03:08:49;;;;;;;0.98;0.40;;;21.00;39.00;;;;;;5064013;28;20480;-80
2021/03/02 03:11:17;;;;;;;0.80;0.40;;;21.00;39.00;;;;;;5056679;28;20201;-80
2021/03/02 03:13:45;;;;;;;1.10;0.60;;;21.00;39.00;;;;;;5062489;28;20032;-80
2021/03/02 03:16:13;;;;;;;1.30;0.50;;;21.00;39.00;;;;;;5059338;28;20373;-80
2021/03/02 03:18:48;;;;;;;0.98;0.40;;;20.90;39.00;;;;;;5060282;28;20025;-79
2021/03/02 03:21:14;;;;;;;0.90;0.40;;;20.90;39.00;;;;;;5062277;28;20095;-80
2021/03/02 03:23:42;;;;;;;1.13;0.50;;;21.00;39.10;;;;;;5059136;28;20036;-80
2021/03/02 03:26:10;;;;;;;0.70;0.30;;;20.90;39.00;;;;;;5061467;28;20505;-79
2021/03/02 03:28:37;;;;;;;1.10;0.40;;;21.00;39.10;;;;;;5061490;28;20393;-79
2021/03/02 03:31:04;;;;;;;1.42;0.40;;;20.90;39.00;;;;;;5062575;28;20028;-80
2021/03/02 03:33:32;;;;;;;0.90;0.30;;;20.90;39.00;;;;;;5059227;28;20119;-80
2021/03/02 03:35:58;;;;;;;0.80;0.40;;;20.90;39.00;;;;;;5060433;28;20033;-80
2021/03/02 03:38:24;;;;;;;1.10;0.57;;;20.90;39.00;;;;;;5057725;28;20037;-80
2021/03/02 03:40:51;;;;;;;0.75;0.40;;;20.90;39.00;;;;;;5061350;28;20366;-80
2021/03/02 03:43:16;;;;;;;1.98;0.40;;;20.90;39.00;;;;;;5056568;28;20041;-80
2021/03/02 03:45:42;;;;;;;1.13;0.57;;;20.90;39.00;;;;;;5059093;28;20039;-80
2021/03/02 03:48:08;;;;;;;1.17;0.50;;;20.90;39.00;;;;;;5055982;28;20086;-80
2021/03/02 03:50:34;;;;;;;1.10;0.40;;;20.90;39.00;;;;;;5061929;28;20024;-80
2021/03/02 03:53:03;;;;;;;0.90;0.43;;;20.90;39.00;;;;;;5059090;28;20044;-80
2021/03/02 03:55:38;;;;;;;0.68;0.43;;;20.80;38.90;;;;;;5057556;28;20326;-80
2021/03/02 03:58:05;;;;;;;1.50;0.52;;;20.80;38.90;;;;;;5053596;28;20401;-80
2021/03/02 04:00:31;;;;;;;0.70;0.32;;;20.80;38.90;;;;;;5053989;28;20028;-80
2021/03/02 04:02:57;;;;;;;1.63;0.55;;;20.80;38.90;;;;;;5061552;28;20047;-80
2021/03/02 04:05:23;;;;;;;1.30;0.35;;;20.80;38.90;;;;;;5058993;28;20108;-80
2021/03/02 04:07:49;;;;;;;0.90;0.40;;;20.80;38.90;;;;;;5060954;28;20021;-80
2021/03/02 04:10:16;;;;;;;0.80;0.40;;;20.80;38.90;;;;;;5057838;28;20388;-81
2021/03/02 04:12:43;;;;;;;1.70;0.50;;;20.80;39.00;;;;;;5058292;28;20044;-80
2021/03/02 04:15:14;;;;;;;1.70;0.40;;;20.80;39.00;;;;;;5058474;28;20115;-80
2021/03/02 04:17:48;;;;;;;2.13;0.30;;;20.80;39.00;;;;;;5059235;28;20035;-80
2021/03/02 04:20:13;;;;;;;0.80;0.35;;;20.80;39.00;;;;;;5057796;28;20058;-80
2021/03/02 04:22:39;;;;;;;0.80;0.40;;;20.70;38.90;;;;;;5060857;28;20391;-80
2021/03/02 04:25:05;;;;;;;2.80;0.63;;;20.70;38.90;;;;;;5056753;28;20119;-80
2021/03/02 04:27:31;;;;;;;0.60;0.30;;;20.80;39.00;;;;;;5060981;28;20035;-79
2021/03/02 04:29:57;;;;;;;1.00;0.50;;;20.70;38.90;;;;;;5060959;28;20033;-79
2021/03/02 04:32:22;;;;;;;1.00;0.45;;;20.70;39.00;;;;;;5057678;28;20033;-80
2021/03/02 04:34:48;;;;;;;0.93;0.50;;;20.70;39.00;;;;;;5058314;28;20028;-80
2021/03/02 04:37:14;;;;;;;0.90;0.20;;;20.70;39.00;;;;;;5060298;28;20106;-80
2021/03/02 04:39:39;;;;;;;0.82;0.40;;;20.70;39.00;;;;;;5056860;28;20025;-80
2021/03/02 04:42:05;;;;;;;0.70;0.30;;;20.70;39.00;;;;;;5053753;28;20064;-80
2021/03/02 04:44:31;;;;;;;0.82;0.40;;;20.70;39.10;;;;;;5038271;28;20017;-80
2021/03/02 04:46:56;;;;;;;0.60;0.40;;;20.70;39.00;;;;;;5058661;28;20074;-80
2021/03/02 04:49:22;;;;;;;0.70;0.35;;;20.70;39.10;;;;;;5051105;28;20028;-80
2021/03/02 04:51:48;;;;;;;1.10;0.40;;;20.70;39.10;;;;;;5060585;28;20492;-79
2021/03/02 04:54:14;;;;;;;0.70;0.40;;;20.70;39.10;;;;;;5058250;28;20174;-79
2021/03/02 04:56:39;;;;;;;0.93;0.35;;;20.70;39.30;;;;;;5056382;28;20045;-79
2021/03/02 04:59:06;;;;;;;0.70;0.30;;;20.70;39.40;;;;;;5055636;28;20028;-79
2021/03/02 05:01:32;;;;;;;0.73;0.32;;;20.70;39.50;;;;;;5058709;28;20029;-79
2021/03/02 05:03:58;;;;;;;0.85;0.35;;;20.70;39.60;;;;;;5053995;28;20028;-79
2021/03/02 05:06:23;;;;;;;0.70;0.32;;;20.70;39.60;;;;;;5049891;28;20133;-79
2021/03/02 05:08:50;;;;;;;0.68;0.30;;;20.70;39.80;;;;;;5056841;28;20028;-79
2021/03/02 05:11:16;;;;;;;0.88;0.50;;;20.70;39.90;;;;;;5058912;28;20559;-79
2021/03/02 05:13:41;;;;;;;0.93;0.35;;;20.70;40.10;;;;;;5053572;28;20026;-79
2021/03/02 05:16:08;;;;;;;0.90;0.30;;;20.70;40.40;;;;;;5038674;28;20042;-79
2021/03/02 05:18:34;;;;;;;0.68;0.30;;;20.70;40.50;;;;;;5059824;28;20174;-79
2021/03/02 05:21:00;;;;;;;1.17;0.20;;;20.70;40.80;;;;;;5060967;28;20115;-79
2021/03/02 05:23:26;;;;;;;0.90;0.40;;;20.70;40.90;;;;;;5056965;28;20556;-79
2021/03/02 05:25:51;;;;;;;0.68;0.30;;;20.70;41.00;;;;;;5039733;28;20031;-79
2021/03/02 05:28:17;;;;;;;1.00;0.50;;;20.70;41.30;;;;;;5055817;28;20116;-79
2021/03/02 05:30:42;;;;;;;0.60;0.30;;;20.70;41.60;;;;;;5055778;28;20029;-81
2021/03/02 05:33:08;;;;;;;0.80;0.35;;;20.70;41.90;;;;;;5061218;28;20028;-81
2021/03/02 05:35:34;;;;;;;0.60;0.30;;;20.70;42.10;;;;;;5056536;28;20033;-81
2021/03/02 05:37:59;;;;;;;0.60;0.30;;;20.70;42.40;;;;;;5055876;28;20075;-81
2021/03/02 05:40:25;;;;;;;0.98;0.30;;;20.60;42.80;;;;;;5057106;28;20408;-81
2021/03/02 05:42:51;;;;;;;1.20;0.55;;;20.60;42.90;;;;;;5053177;28;20017;-81
2021/03/02 05:45:17;;;;;;;0.80;0.30;;;20.70;43.00;;;;;;5056336;28;20033;-81
2021/03/02 05:47:44;;;;;;;0.60;0.30;;;20.60;43.30;;;;;;5040426;28;20082;-81
2021/03/02 05:50:10;;;;;;;0.85;0.35;;;20.60;43.60;;;;;;5054547;28;20056;-81
2021/03/02 05:52:36;;;;;;;0.50;0.20;;;20.60;43.80;;;;;;5040269;28;20072;-81
2021/03/02 05:55:03;;;;;;;0.70;0.30;;;20.60;44.10;;;;;;5057346;28;20481;-81
2021/03/02 05:57:29;;;;;;;0.52;0.30;;;20.60;44.30;;;;;;5055912;28;20033;-81
2021/03/02 05:59:55;;;;;;;0.80;0.40;;;20.60;44.40;;;;;;5057995;28;20029;-81
2021/03/02 06:02:21;;;;;;;0.80;0.30;;;20.60;44.80;;;;;;5035816;28;20310;-81
2021/03/02 06:04:50;;;;;;;0.73;0.38;;;20.60;45.40;;;;;;5058480;28;20021;-81
2021/03/02 06:07:16;;;;;;;0.90;0.40;;;20.60;45.30;;;;;;5054436;28;20085;-81
2021/03/02 06:09:42;;;;;;;1.33;0.30;;;20.50;46.10;;;;;;5059531;28;20037;-81
2021/03/02 06:12:07;;;;;;;1.30;0.30;;;20.60;45.80;;;;;;5055966;28;20028;-81
2021/03/02 06:14:36;;;;;;;0.68;0.28;;;20.50;45.90;;;;;;5058799;28;20056;-81
2021/03/02 06:17:05;;;;;;;0.98;0.43;;;20.60;46.00;;;;;;5054507;28;20024;-80
2021/03/02 06:19:41;;;;;;;0.47;0.20;;;20.50;46.00;;;;;;5063699;28;20033;-81
2021/03/02 06:22:28;;;;;;;0.80;0.30;;;20.50;46.00;;;;;;5043898;28;20028;-81
2021/03/02 06:24:54;;;;;;;0.55;0.30;;;20.60;46.00;;;;;;5060621;28;20029;-81
2021/03/02 06:27:19;;;;;;;0.77;0.30;;;20.60;46.00;;;;;;5062577;28;20032;-81
2021/03/02 06:30:09;;;;;;;0.70;0.30;;;20.50;46.00;;;;;;5063333;28;20060;-80
2021/03/02 06:32:44;;;;;;;1.10;0.40;;;20.60;46.00;;;;;;5064264;28;20037;-81
2021/03/02 06:35:11;;;;;;;0.65;0.30;;;20.60;46.20;;;;;;5062042;28;20032;-81
2021/03/02 06:37:44;;;;;;;0.60;0.28;;;20.60;46.20;;;;;;5061203;28;20400;-81
2021/03/02 06:40:12;;;;;;;0.88;0.40;;;20.70;46.10;;;;;;5056858;28;20376;-81
2021/03/02 06:42:40;;;;;;;1.58;0.43;;;20.80;45.90;;;;;;5061165;28;20397;-81
2021/03/02 06:45:08;;;;;;;0.93;0.28;;;20.80;45.80;;;;;;5062504;28;20025;-81
2021/03/02 06:47:39;;;;;;;0.65;0.30;;;20.90;45.80;;;;;;5055176;28;20034;-81
2021/03/02 06:50:25;;;;;;;0.90;0.35;;;20.90;45.80;;;;;;5061419;28;20032;-81
2021/03/02 06:52:51;;;;;;;1.85;0.40;;;20.90;45.90;;;;;;5059091;28;20028;-82
2021/03/02 06:55:16;;;;;;;0.65;0.20;;;20.90;45.80;;;;;;5059518;28;20127;-80
2021/03/02 06:57:43;;;;;;;1.42;0.32;;;21.00;45.80;;;;;;5058640;28;20022;-82
2021/03/02 07:00:10;;;;;;;1.17;0.30;;;21.00;45.80;;;;;;5054797;28;20074;-80
2021/03/02 07:02:44;;;;;;;0.77;0.40;;;21.00;45.70;;;;;;5062596;28;20059;-80
2021/03/02 07:05:11;;;;;;;1.80;0.40;;;21.00;45.70;;;;;;5062964;28;20025;-80
2021/03/02 07:07:54;;;;;;;1.00;0.30;;;21.10;45.70;;;;;;5062887;28;20051;-80
2021/03/02 07:10:19;;;;;;;0.90;0.38;;;21.10;45.60;;;;;;5054617;28;20040;-79
2021/03/02 07:12:45;;;;;;;1.02;0.30;;;21.10;45.50;;;;;;5059175;28;20034;-80
2021/03/02 07:15:13;;;;;;;1.55;0.50;;;21.20;45.40;;;;;;5064705;28;20095;-80
2021/03/02 07:17:42;;;;;;;0.80;0.40;;;21.20;45.40;;;;;;5064281;28;20033;-79
2021/03/02 07:20:09;;;;;;;0.88;0.50;;;21.20;45.30;;;;;;5058711;28;20033;-79
2021/03/02 07:22:37;;;;;;;0.90;0.50;;;21.20;45.30;;;;;;5062006;28;20049;-80
2021/03/02 07:25:08;;;;;;;0.80;0.20;;;21.30;45.30;;;;;;5062543;28;20032;-80
2021/03/02 07:27:40;;;;;;;0.60;0.30;;;21.40;45.20;;;;;;5064239;28;20027;-79
2021/03/02 07:30:06;;;;;;;1.10;0.30;;;21.40;45.20;;;;;;5063386;28;20374;-80
2021/03/02 07:32:34;;;;;;;0.47;0.20;;;21.40;45.10;;;;;;5056438;28;20518;-79
2021/03/02 07:35:00;;;;;;;1.00;0.40;;;21.40;45.10;;;;;;5059761;28;20093;-79
2021/03/02 07:37:26;;;;;;;0.95;0.40;;;21.40;45.10;;;;;;5062369;28;20103;-80
2021/03/02 07:40:06;;;;;;;0.63;0.25;;;21.40;45.10;;;;;;5059938;28;20449;-80
2021/03/02 07:42:32;;;;;;;0.80;0.40;;;21.40;45.10;;;;;;5065963;28;20029;-80
2021/03/02 07:45:16;;;;;;;0.90;0.30;;;21.40;45.20;;;;;;5058722;28;20064;-80
2021/03/02 07:47:47;;;;;;;1.38;0.38;;;21.50;45.40;;;;;;5045228;28;20020;-79
2021/03/02 07:50:32;;;;;;;0.70;0.30;;;21.60;46.00;;;;;;5038880;28;20037;-79
2021/03/02 07:53:16;;;;;;;1.05;0.30;;;21.50;45.60;;;;;;5075124;28;20108;-79
2021/03/02 07:55:42;;;;;;;2.65;0.40;;;21.40;45.50;;;;;;5066665;28;20028;-79
2021/03/02 07:58:16;;;;;;;1.35;0.45;;;21.40;45.60;;;;;;5062134;28;20082;-82
2021/03/02 08:00:46;;;;;;;1.45;0.50;;;21.30;45.60;;;;;;5058725;28;20068;-82
2021/03/02 08:03:25;;;;;;;0.70;0.30;;;21.40;45.70;;;;;;5063691;28;20051;-79
2021/03/02 08:05:58;;;;;;;1.25;0.30;;;21.40;45.70;;;;;;5064152;28;20497;-79
2021/03/02 08:08:23;;;;;;;1.70;0.30;;;21.40;45.60;;;;;;5063223;28;20029;-79
2021/03/02 08:10:54;;;;;;;1.25;0.55;;;21.40;45.60;;;;;;5065533;28;20027;-79
2021/03/02 08:13:31;;;;;;;1.23;0.50;;;21.40;45.60;;;;;;5059642;28;20032;-79
2021/03/02 08:15:57;;;;;;;1.65;0.35;;;21.40;45.60;;;;;;5063234;28;20676;-80
2021/03/02 08:18:31;;;;;;;1.73;0.40;;;21.40;45.50;;;;;;5061496;28;20036;-79
2021/03/02 08:21:16;;;;;;;0.90;0.40;;;21.40;45.60;;;;;;5073814;28;20060;-80
2021/03/02 08:23:47;;;;;;;1.60;0.45;;;21.40;45.60;;;;;;5068657;28;20025;-80
2021/03/02 08:26:25;;;;;;;1.17;0.55;;;21.40;45.60;;;;;;5057309;28;20032;-81
2021/03/02 08:29:04;;;;;;;1.30;0.47;;;21.40;45.50;;;;;;5055750;28;20036;-80
2021/03/02 08:31:30;;;;;;;1.88;0.40;;;21.50;45.80;;;;;;5065624;28;20029;-80
2021/03/02 08:33:58;;;;;;;0.98;0.50;;;21.50;45.90;;;;;;5064844;28;20731;-81
2021/03/02 08:36:24;;;;;;;2.35;0.45;;;21.50;45.80;;;;;;5054217;28;20033;-81
2021/03/02 08:38:50;;;;;;;1.70;0.40;;;21.50;46.20;;;;;;5065470;28;20510;-79
2021/03/02 08:41:40;;;;;;;1.90;0.60;;;21.60;46.20;;;;;;5061431;28;20136;-79
2021/03/02 08:44:14;;;;;;;0.88;0.50;;;21.60;46.20;;;;;;5058494;28;20040;-79
2021/03/02 08:46:40;;;;;;;0.95;0.50;;;21.70;47.00;;;;;;5056252;28;20504;-79
2021/03/02 08:49:08;;;;;;;5.15;0.73;;;21.70;46.50;;;;;;5043686;28;20063;-80
2021/03/02 08:51:34;;;;;;;1.17;0.38;;;21.60;46.50;;;;;;5057527;28;20284;-80
2021/03/02 08:54:00;;;;;;;1.33;0.57;;;21.70;46.40;;;;;;5060406;28;20020;-80
2021/03/02 08:56:25;;;;;;;2.25;0.60;;;21.70;46.50;;;;;;5059305;28;20052;-79
2021/03/02 08:59:11;;;;;;;2.30;0.63;;;21.70;46.60;;;;;;5037638;28;20033;-79
2021/03/02 09:01:41;;;;;;;2.67;0.85;;;21.80;46.50;;;;;;5052983;28;20111;-80
2021/03/02 09:04:18;;;;;;;1.80;0.82;;;21.80;46.30;;;;;;5038928;28;20078;-78
2021/03/02 09:06:48;;;;;;;2.35;0.90;;;21.80;42.00;;;;;;5057551;28;20171;-81
2021/03/02 09:09:19;;;;;;;1.42;0.88;;;21.80;41.70;;;;;;5059988;28;20052;-82
2021/03/02 09:11:50;;;;;;;1.73;1.10;;;21.80;41.50;;;;;;5058682;28;20106;-84
2021/03/02 09:14:19;;;;;;;1.92;1.10;;;21.90;41.60;;;;;;5039077;28;20124;-83
2021/03/02 09:16:46;;;;;;;2.17;1.13;;;21.80;41.60;;;;;;5060046;28;20283;-83
2021/03/02 09:19:24;;;;;;;2.03;1.20;;;21.90;42.00;;;;;;5059779;28;20120;-81
2021/03/02 09:22:04;;;;;;;1.95;1.33;;;21.90;41.90;;;;;;5051311;28;20130;-83
2021/03/02 09:24:39;;;;;;;3.58;1.42;;;21.90;41.80;;;;;;5053779;28;20039;-82
2021/03/02 09:27:14;;;;;;;1.77;0.95;;;21.90;41.70;;;;;;5051880;28;20592;-83
2021/03/02 09:29:45;;;;;;;1.70;1.60;;;21.90;41.70;;;;;;5049277;28;20060;-82
2021/03/02 09:32:13;;;;;;;2.25;1.75;;;21.90;41.70;;;;;;5057867;28;20106;-82
2021/03/02 09:34:46;;;;;;;2.30;1.58;;;21.90;41.60;;;;;;5056239;28;20064;-80
2021/03/02 09:37:15;;;;;;;2.22;1.45;;;22.00;41.30;;;;;;5054297;28;20029;-83
2021/03/02 09:39:54;;;;;;;1.70;1.38;;;22.00;41.50;;;;;;5056360;28;20033;-82
2021/03/02 09:42:22;;;;;;;1.80;1.67;;;22.10;41.90;;;;;;5046294;28;20064;-80
2021/03/02 09:44:53;;;;;;;2.15;1.52;;;22.00;41.50;;;;;;5057902;28;20032;-82
2021/03/02 09:47:29;;;;;;;2.25;1.67;;;22.10;41.50;;;;;;5059584;28;20036;-81
2021/03/02 09:50:07;;;;;;;1.80;1.55;;;22.10;41.50;;;;;;5041112;28;20047;-81
2021/03/02 09:52:37;;;;;;;2.33;1.38;;;22.10;41.50;;;;;;5053473;28;20452;-82
2021/03/02 09:55:21;;;;;;;1.83;1.40;;;22.20;41.20;;;;;;5062059;28;20043;-81
2021/03/02 09:58:14;;;;;;;1.40;1.20;;;22.20;41.10;;;;;;5053524;28;20041;-81
2021/03/02 10:00:45;;;;;;;4.43;1.35;;;22.20;41.10;;;;;;5053870;28;20033;-81
2021/03/02 10:03:15;;;;;;;1.77;1.58;;;22.20;41.50;;;;;;5044533;28;20102;-81
2021/03/02 10:05:58;;;;;;;1.85;1.20;;;22.00;40.90;;;;;;5063570;28;20082;-81
2021/03/02 10:08:30;;;;;;;1.83;1.30;;;22.20;40.80;;;;;;5058026;28;20033;-81
2021/03/02 10:11:02;;;;;;;1.60;1.10;;;22.20;40.40;;;;;;5059671;28;20077;-82
2021/03/02 10:13:29;;;;;;;1.90;1.08;;;22.30;39.80;;;;;;5059477;28;20037;-81
2021/03/02 10:16:11;;;;;;;2.60;1.25;;;22.30;40.10;;;;;;5061296;28;20630;-80
2021/03/02 10:19:03;;;;;;;2.80;1.08;;;22.30;39.80;;;;;;5063333;28;20033;-78
2021/03/02 10:21:45;;;;;;;2.65;1.02;;;22.40;39.70;;;;;;5059201;28;20043;-79
2021/03/02 10:24:23;;;;;;;2.35;1.60;;;22.40;39.70;;;;;;5059484;28;20039;-81
2021/03/02 10:26:49;;;;;;;1.92;1.10;;;22.40;39.60;;;;;;5058385;28;20071;-81
2021/03/02 10:29:15;;;;;;;1.40;1.15;;;22.40;39.70;;;;;;5060689;28;20106;-79
2021/03/02 10:31:41;;;;;;;2.30;1.20;;;22.40;39.70;;;;;;5061592;28;20111;-79
2021/03/02 10:34:08;;;;;;;2.28;0.75;;;22.40;39.90;;;;;;5063320;28;20036;-80
2021/03/02 10:36:36;;;;;;;2.10;1.10;;;22.40;40.00;;;;;;5062670;28;20121;-80
2021/03/02 10:39:10;;;;;;;1.65;1.05;;;22.50;40.00;;;;;;5059676;28;20099;-80
2021/03/02 10:41:36;;;;;;;1.90;0.95;;;22.50;39.80;;;;;;5061067;28;20044;-80
2021/03/02 10:44:03;;;;;;;1.20;0.82;;;22.50;39.90;;;;;;5061190;28;20060;-83
2021/03/02 10:46:30;;;;;;;1.33;0.82;;;22.50;39.90;;;;;;5057399;28;20033;-80
2021/03/02 10:48:56;;;;;;;1.10;0.82;;;22.50;40.00;;;;;;5055981;28;20099;-81
2021/03/02 10:51:22;;;;;;;2.15;0.68;;;22.50;40.10;;;;;;5065988;28;20037;-80
2021/03/02 10:53:49;;;;;;;2.20;1.13;;;22.50;40.10;;;;;;5059298;28;20035;-80
2021/03/02 10:56:15;;;;;;;1.33;0.60;;;22.50;40.40;;;;;;5065271;28;20538;-81
2021/03/02 10:58:42;;;;;;;1.00;0.60;;;22.50;40.30;;;;;;5060391;28;20512;-79
2021/03/02 11:01:08;;;;;;;1.50;1.13;;;22.60;40.30;;;;;;5052903;28;20603;-79
2021/03/02 11:03:33;;;;;;;2.22;0.85;;;22.60;40.40;;;;;;5061156;28;20037;-80
2021/03/02 11:05:59;;;;;;;1.80;1.05;;;22.50;40.20;;;;;;5055685;28;20342;-78
2021/03/02 11:08:25;;;;;;;1.08;0.80;;;22.60;40.20;;;;;;5062554;28;20020;-79
2021/03/02 11:10:51;;;;;;;1.15;0.73;;;22.60;40.30;;;;;;5059574;28;20167;-79
2021/03/02 11:13:17;;;;;;;1.13;0.60;;;22.60;40.20;;;;;;5059477;28;20076;-81
2021/03/02 11:15:43;;;;;;;2.50;1.23;;;22.60;40.30;;;;;;5058742;28;20032;-84
2021/03/02 11:18:09;;;;;;;1.23;0.68;;;22.60;40.30;;;;;;5062904;28;20039;-82
2021/03/02 11:20:35;;;;;;;1.27;0.93;;;22.60;40.40;;;;;;5060305;28;20379;-85
2021/03/02 11:23:02;;;;;;;1.75;0.65;;;22.70;40.90;;;;;;5061474;28;20017;-81
2021/03/02 11:25:28;;;;;;;2.33;1.05;;;22.60;40.40;;;;;;5060463;28;20048;-80
2021/03/02 11:27:54;;;;;;;1.33;0.82;;;22.60;40.70;;;;;;5058787;28;20022;-84
2021/03/02 11:30:21;;;;;;;1.42;0.80;;;22.60;41.30;;;;;;5063210;28;20037;-82
2021/03/02 11:32:46;;;;;;;2.05;0.70;;;22.60;41.50;;;;;;5039284;28;20076;-83
2021/03/02 11:35:12;;;;;;;2.50;0.93;;;22.70;41.70;;;;;;5061574;28;20033;-82
2021/03/02 11:37:39;;;;;;;1.95;0.80;;;22.60;41.40;;;;;;5061450;28;20031;-77
2021/03/02 11:40:10;;;;;;;1.35;0.90;;;22.60;40.90;;;;;;5079822;28;20013;-79
2021/03/02 11:42:56;;;;;;;3.75;1.10;;;22.70;41.80;;;;;;5080351;28;20039;-78
2021/03/02 11:45:27;;;;;;;3.00;1.33;;;22.60;41.80;;;;;;5078340;28;20017;-83
2021/03/02 11:47:54;;;;;;;1.05;0.68;;;22.70;42.20;;;;;;5079179;28;20037;-79
2021/03/02 11:50:21;;;;;;;1.17;0.77;;;22.60;41.80;;;;;;5076162;28;20097;-78
2021/03/02 11:52:48;;;;;;;1.80;0.82;;;22.60;41.80;;;;;;5083141;28;20045;-80
2021/03/02 11:55:15;;;;;;;1.23;0.70;;;22.60;42.00;;;;;;5077491;28;20187;-78
2021/03/02 11:57:59;;;;;;;1.80;0.68;;;22.70;41.90;;;;;;5076856;28;20040;-79
2021/03/02 12:00:25;;;;;;;1.98;1.17;;;22.70;41.90;;;;;;5074379;28;20115;-81
2021/03/02 12:02:51;;;;;;;1.60;1.13;;;22.70;41.90;;;;;;5061802;28;20028;-81
2021/03/02 12:05:22;;;;;;;2.17;1.30;;;22.70;41.90;;;;;;5083472;28;20079;-80
2021/03/02 12:07:49;;;;;;;1.38;0.98;;;22.70;42.00;;;;;;5079546;28;20044;-78
2021/03/02 12:10:16;;;;;;;3.78;1.30;;;22.70;42.20;;;;;;5078337;28;20040;-81
2021/03/02 12:12:43;;;;;;;1.95;1.02;;;22.80;42.30;;;;;;5080352;28;20051;-81
2021/03/02 12:15:10;;;;;;;1.02;0.65;;;22.80;42.60;;;;;;5081323;28;20029;-78
2021/03/02 12:17:36;;;;;;;1.25;0.77;;;22.80;42.40;;;;;;5080872;28;20113;-79
2021/03/02 12:20:04;;;;;;;1.48;1.00;;;22.90;42.50;;;;;;5075245;28;20020;-79
2021/03/02 12:22:35;;;;;;;1.55;1.02;;;22.90;42.50;;;;;;5078911;28;20056;-80
2021/03/02 12:25:02;;;;;;;3.03;0.98;;;22.90;42.50;;;;;;5067198;28;20415;-81
2021/03/02 12:27:27;;;;;;;2.30;1.27;;;23.00;42.40;;;;;;5062923;28;20029;-80
2021/03/02 12:29:53;;;;;;;2.72;1.00;;;22.90;42.40;;;;;;5069263;28;20040;-83
2021/03/02 12:32:18;;;;;;;1.63;0.80;;;23.00;41.70;;;;;;5081430;28;20024;-81
2021/03/02 12:34:44;;;;;;;1.73;0.88;;;22.90;42.20;;;;;;5081166;28;20241;-79
2021/03/02 12:37:09;;;;;;;1.45;0.60;;;22.90;42.60;;;;;;5077753;28;20059;-82
2021/03/02 12:39:35;;;;;;;1.23;1.10;;;22.90;42.70;;;;;;5076299;28;20105;-79
2021/03/02 12:42:00;;;;;;;1.40;0.77;;;22.90;42.70;;;;;;5075306;28;20035;-79
2021/03/02 12:44:26;;;;;;;1.88;1.13;;;22.90;42.70;;;;;;5076266;28;20068;-79
2021/03/02 12:46:52;;;;;;;1.67;0.88;;;22.90;42.70;;;;;;5080320;28;20042;-78
2021/03/02 12:49:17;;;;;;;1.88;0.77;;;22.90;42.80;;;;;;5078802;28;20025;-79
2021/03/02 12:51:43;;;;;;;1.48;0.77;;;22.90;42.80;;;;;;5079197;28;20032;-81
2021/03/02 12:54:09;;;;;;;1.75;1.08;;;22.90;42.90;;;;;;5077616;28;20048;-80
2021/03/02 12:56:34;;;;;;;1.83;0.80;;;22.90;42.90;;;;;;5079331;28;20023;-81